Time;durP1;ratioP1;P1;durP2;ratioP2;P2;SDS_P1;SDS_P2;PMS_P1;PMS_P2;Temp;Humidity;BMP_temperature;BMP_pressure;BME280_temperature;BME280_humidity;BME280_pressure;Samples;Min_cycle;Max_cycle;Signal;HPM_P1;HPM_P2
2021/07/20 00:00:02;;;;;;;1.63;1.10;;;30.90;46.20;;;;;;5024365;28;20484;-28
2021/07/20 00:02:37;;;;;;;1.77;1.00;;;30.80;46.50;;;;;;5024230;28;20767;-28
2021/07/20 00:05:10;;;;;;;1.30;1.20;;;30.70;46.20;;;;;;5024712;28;20467;-28
2021/07/20 00:07:43;;;;;;;1.10;1.00;;;30.70;45.50;;;;;;5024717;28;20484;-27
2021/07/20 00:10:17;;;;;;;1.33;1.23;;;30.60;46.20;;;;;;5025116;28;20467;-27
2021/07/20 00:12:48;;;;;;;1.63;0.90;;;30.60;45.50;;;;;;5024222;28;20464;-28
2021/07/20 00:15:19;;;;;;;1.77;1.13;;;30.60;46.80;;;;;;5024845;28;20451;-28
2021/07/20 00:17:52;;;;;;;1.23;1.13;;;30.50;46.90;;;;;;5017791;28;20471;-28
2021/07/20 00:20:25;;;;;;;3.10;1.40;;;30.70;46.90;;;;;;5009515;28;20842;-28
2021/07/20 00:22:57;;;;;;;1.40;1.30;;;30.60;46.10;;;;;;5012253;28;21025;-27
2021/07/20 00:25:28;;;;;;;5.93;0.80;;;30.50;46.90;;;;;;5010478;28;20981;-27
2021/07/20 00:28:00;;;;;;;2.40;1.00;;;30.50;46.30;;;;;;5011047;28;20942;-27
2021/07/20 00:30:31;;;;;;;5.43;1.33;;;30.50;45.90;;;;;;5010740;28;20478;-27
2021/07/20 00:33:02;;;;;;;2.17;1.00;;;30.30;47.40;;;;;;5011195;28;20451;-27
2021/07/20 00:35:34;;;;;;;1.30;1.03;;;30.20;46.00;;;;;;5022886;28;20590;-27
2021/07/20 00:38:07;;;;;;;1.90;0.90;;;30.10;47.30;;;;;;5016759;28;20495;-27
2021/07/20 00:40:38;;;;;;;3.97;1.27;;;29.90;47.20;;;;;;5004700;28;20481;-27
2021/07/20 00:43:10;;;;;;;1.43;1.07;;;29.80;47.80;;;;;;5005225;28;20453;-27
2021/07/20 00:45:41;;;;;;;0.70;0.70;;;29.80;47.70;;;;;;5006804;28;20467;-28
2021/07/20 00:48:12;;;;;;;0.90;0.90;;;29.90;47.60;;;;;;5004734;28;20456;-27
2021/07/20 00:50:45;;;;;;;2.40;1.00;;;29.90;47.20;;;;;;5004721;28;20611;-27
2021/07/20 00:53:18;;;;;;;0.90;0.80;;;29.90;47.50;;;;;;5007918;28;20453;-27
2021/07/20 00:55:49;;;;;;;0.90;0.77;;;29.70;47.70;;;;;;5015874;28;20461;-28
2021/07/20 00:58:20;;;;;;;1.20;1.03;;;29.50;48.80;;;;;;5009222;28;20447;-28
2021/07/20 01:00:52;;;;;;;1.47;1.10;;;29.50;48.70;;;;;;5023133;28;20510;-27
2021/07/20 01:03:24;;;;;;;1.13;1.07;;;29.50;48.60;;;;;;5021448;28;20452;-28
2021/07/20 01:05:55;;;;;;;1.63;1.13;;;29.40;49.40;;;;;;5021001;28;20487;-28
2021/07/20 01:08:28;;;;;;;3.70;1.73;;;29.30;50.30;;;;;;5022418;28;20472;-28
2021/07/20 01:11:00;;;;;;;1.80;0.70;;;29.20;49.90;;;;;;5016098;28;20494;-27
2021/07/20 01:13:32;;;;;;;1.10;1.00;;;29.10;50.40;;;;;;5014685;28;20443;-27
2021/07/20 01:16:05;;;;;;;2.23;1.37;;;29.00;51.60;;;;;;5017097;28;20559;-27
2021/07/20 01:18:36;;;;;;;1.90;1.40;;;28.80;51.50;;;;;;5018688;28;20457;-26
2021/07/20 01:21:09;;;;;;;3.20;1.57;;;28.80;51.80;;;;;;5003443;28;20471;-27
2021/07/20 01:23:44;;;;;;;1.40;1.30;;;28.70;51.90;;;;;;5013785;28;20479;-27
2021/07/20 01:26:15;;;;;;;1.40;1.30;;;28.60;52.50;;;;;;5009562;28;20450;-27
2021/07/20 01:28:47;;;;;;;1.80;1.40;;;28.60;53.00;;;;;;5017518;28;20926;-27
2021/07/20 01:31:22;;;;;;;1.53;1.43;;;28.40;52.80;;;;;;5012671;28;20498;-27
2021/07/20 01:33:56;;;;;;;1.40;1.30;;;28.40;53.40;;;;;;5004173;28;20524;-28
2021/07/20 01:36:28;;;;;;;2.80;1.33;;;28.40;54.00;;;;;;5011234;28;20447;-28
2021/07/20 01:39:03;;;;;;;3.53;1.30;;;28.30;53.90;;;;;;5022901;28;20445;-27
2021/07/20 01:41:35;;;;;;;3.30;1.30;;;28.30;53.40;;;;;;5012489;28;20470;-27
2021/07/20 01:44:09;;;;;;;2.47;1.40;;;28.20;53.80;;;;;;5020281;28;20555;-27
2021/07/20 01:46:42;;;;;;;1.53;1.43;;;28.20;54.00;;;;;;5013592;28;20461;-27
2021/07/20 01:49:15;;;;;;;2.97;1.57;;;28.10;54.00;;;;;;5005567;28;20458;-27
2021/07/20 01:51:47;;;;;;;1.40;1.20;;;28.10;54.60;;;;;;5014378;28;20457;-27
2021/07/20 01:54:20;;;;;;;3.60;1.33;;;28.00;55.40;;;;;;5013090;28;20445;-26
2021/07/20 01:56:51;;;;;;;2.87;1.60;;;27.90;54.70;;;;;;5015012;28;20455;-27
2021/07/20 01:59:22;;;;;;;2.17;2.00;;;27.80;55.10;;;;;;5009996;28;20451;-27
2021/07/20 02:02:04;;;;;;;2.50;1.37;;;27.70;55.00;;;;;;5015342;28;20510;-27
2021/07/20 02:04:48;;;;;;;2.90;1.10;;;27.70;55.20;;;;;;5005606;28;20501;-27
2021/07/20 02:10:14;;;;;;;1.00;1.00;;;27.60;55.00;;;;;;5020836;28;20463;-27
2021/07/20 02:12:46;;;;;;;1.50;1.30;;;27.50;55.30;;;;;;5011719;28;20449;-28
2021/07/20 02:15:18;;;;;;;1.47;1.10;;;27.40;55.80;;;;;;5005290;28;20447;-28
2021/07/20 02:17:52;;;;;;;2.20;1.27;;;27.40;55.60;;;;;;5012893;28;20510;-28
2021/07/20 02:20:25;;;;;;;3.63;1.83;;;27.40;56.10;;;;;;5017842;28;20459;-27
2021/07/20 02:22:58;;;;;;;1.53;0.90;;;27.30;56.30;;;;;;5019237;28;20456;-27
2021/07/20 02:25:32;;;;;;;1.13;1.03;;;27.20;56.50;;;;;;5019042;28;20491;-27
2021/07/20 02:28:23;;;;;;;1.03;0.93;;;27.10;56.60;;;;;;5019135;28;20485;-27
2021/07/20 02:30:55;;;;;;;1.10;0.93;;;27.00;57.20;;;;;;5014764;28;20461;-28
2021/07/20 02:33:27;;;;;;;1.20;1.10;;;27.00;57.40;;;;;;5014488;28;20452;-28
2021/07/20 02:35:59;;;;;;;2.27;1.03;;;27.00;57.50;;;;;;5022296;28;20458;-28
2021/07/20 02:38:32;;;;;;;1.83;1.40;;;26.80;57.70;;;;;;5011318;28;20944;-28
2021/07/20 02:41:05;;;;;;;1.27;0.80;;;26.80;58.20;;;;;;5017989;28;20549;-28
2021/07/20 02:43:38;;;;;;;1.37;1.27;;;26.70;58.00;;;;;;5003612;28;20477;-27
2021/07/20 02:46:11;;;;;;;1.30;1.20;;;26.70;58.40;;;;;;5005488;28;20502;-28
2021/07/20 02:48:42;;;;;;;1.20;1.10;;;26.60;58.10;;;;;;5014317;28;20454;-27
2021/07/20 02:51:15;;;;;;;3.80;1.13;;;26.50;58.80;;;;;;5016465;28;20463;-26
2021/07/20 02:53:47;;;;;;;1.07;0.80;;;26.30;59.60;;;;;;5013676;28;20819;-27
2021/07/20 02:56:21;;;;;;;1.00;0.90;;;26.20;59.30;;;;;;5023486;28;20459;-27
2021/07/20 02:58:54;;;;;;;1.87;1.03;;;26.10;59.90;;;;;;5020024;28;20461;-27
2021/07/20 03:01:26;;;;;;;1.00;1.00;;;26.10;59.60;;;;;;5019164;28;20446;-27
2021/07/20 03:03:58;;;;;;;0.93;0.83;;;25.90;60.10;;;;;;5020016;28;20775;-26
2021/07/20 03:06:31;;;;;;;1.47;0.93;;;25.80;60.30;;;;;;5014598;28;20483;-27
2021/07/20 03:09:03;;;;;;;1.17;0.80;;;25.80;61.00;;;;;;5015887;28;20461;-27
2021/07/20 03:11:41;;;;;;;0.90;0.90;;;25.70;60.70;;;;;;5014725;28;20450;-27
2021/07/20 03:14:15;;;;;;;1.00;0.90;;;25.60;60.60;;;;;;5015319;28;20525;-27
2021/07/20 03:16:47;;;;;;;3.00;0.80;;;25.50;60.30;;;;;;5015742;28;20454;-27
2021/07/20 03:19:22;;;;;;;0.90;0.70;;;25.30;60.90;;;;;;5015296;28;20523;-27
2021/07/20 03:21:56;;;;;;;2.03;0.93;;;25.20;61.10;;;;;;5016930;28;20457;-26
2021/07/20 03:24:28;;;;;;;1.30;0.90;;;25.10;61.40;;;;;;5017920;28;20454;-27
2021/07/20 03:27:01;;;;;;;0.60;0.60;;;25.00;62.60;;;;;;5019325;28;20566;-27
2021/07/20 03:29:33;;;;;;;0.60;0.60;;;24.80;63.00;;;;;;5010437;28;20469;-27
2021/07/20 03:32:04;;;;;;;1.10;0.83;;;24.70;63.00;;;;;;5021889;28;20474;-28
2021/07/20 03:34:37;;;;;;;1.63;0.80;;;24.60;63.40;;;;;;5018224;28;20480;-27
2021/07/20 03:37:10;;;;;;;1.63;1.00;;;24.50;63.40;;;;;;5007050;28;20480;-27
2021/07/20 03:39:42;;;;;;;1.00;0.90;;;24.40;64.20;;;;;;5018246;28;20572;-27
2021/07/20 03:42:18;;;;;;;2.20;0.73;;;24.30;64.90;;;;;;5023524;28;20497;-27
2021/07/20 03:44:49;;;;;;;2.27;1.03;;;24.20;65.30;;;;;;5013662;28;20899;-27
2021/07/20 03:47:21;;;;;;;2.50;0.80;;;24.10;65.20;;;;;;5017678;28;20452;-27
2021/07/20 03:49:53;;;;;;;0.90;0.77;;;24.00;65.90;;;;;;5010023;28;20466;-27
2021/07/20 03:52:25;;;;;;;15.63;1.23;;;23.90;66.70;;;;;;5014300;28;20468;-27
2021/07/20 03:54:56;;;;;;;0.70;0.60;;;23.80;66.70;;;;;;5007561;28;20462;-27
2021/07/20 03:57:30;;;;;;;0.80;0.70;;;23.70;67.40;;;;;;5005508;28;20929;-27
2021/07/20 04:00:04;;;;;;;2.53;1.00;;;23.60;67.20;;;;;;5013503;28;20453;-27
2021/07/20 04:02:45;;;;;;;1.90;0.60;;;23.50;68.10;;;;;;5025329;28;20456;-27
2021/07/20 04:05:18;;;;;;;1.00;0.77;;;23.40;68.90;;;;;;5024634;28;20444;-28
2021/07/20 04:07:51;;;;;;;3.60;0.80;;;23.40;69.30;;;;;;5023040;28;20451;-27
2021/07/20 04:10:22;;;;;;;1.00;0.60;;;23.20;70.40;;;;;;5010098;28;20459;-27
2021/07/20 04:12:55;;;;;;;0.60;0.60;;;23.10;71.00;;;;;;5004955;28;20456;-27
2021/07/20 04:15:27;;;;;;;1.30;1.10;;;23.10;71.40;;;;;;5005807;28;20478;-27
2021/07/20 04:17:58;;;;;;;1.90;0.67;;;23.00;72.20;;;;;;5004882;28;20858;-26
2021/07/20 04:20:29;;;;;;;0.70;0.70;;;22.90;72.70;;;;;;5024348;28;20520;-27
2021/07/20 04:23:00;;;;;;;2.07;0.83;;;22.80;73.20;;;;;;5023883;28;20428;-27
2021/07/20 04:25:32;;;;;;;0.93;0.93;;;22.70;73.90;;;;;;5006620;28;20458;-27
2021/07/20 04:28:06;;;;;;;0.63;0.63;;;22.60;75.10;;;;;;5004358;28;20494;-27
2021/07/20 04:30:40;;;;;;;0.80;0.70;;;22.50;75.40;;;;;;5009326;28;20426;-27
2021/07/20 04:33:13;;;;;;;1.73;0.70;;;22.50;76.40;;;;;;5005607;28;20455;-26
2021/07/20 04:35:45;;;;;;;0.90;0.60;;;22.40;77.10;;;;;;5008140;28;20433;-27
2021/07/20 04:38:18;;;;;;;1.43;0.80;;;22.40;77.60;;;;;;5004908;28;20446;-26
2021/07/20 04:40:50;;;;;;;1.00;0.80;;;22.20;78.30;;;;;;5010843;28;20489;-27
2021/07/20 04:43:24;;;;;;;1.30;0.80;;;22.20;79.20;;;;;;5023232;28;20440;-27
2021/07/20 04:45:56;;;;;;;1.43;0.90;;;22.10;80.00;;;;;;5021493;28;20527;-27
2021/07/20 04:48:27;;;;;;;1.07;0.60;;;22.00;81.00;;;;;;5004279;28;20799;-27
2021/07/20 04:50:58;;;;;;;0.90;0.90;;;21.90;81.80;;;;;;5009366;28;20443;-27
2021/07/20 04:53:30;;;;;;;1.87;0.87;;;21.90;82.40;;;;;;5008380;28;20446;-27
2021/07/20 04:56:06;;;;;;;1.73;0.77;;;21.80;83.00;;;;;;5004785;28;20459;-27
2021/07/20 04:58:39;;;;;;;1.10;1.00;;;21.70;84.20;;;;;;5010937;28;20437;-27
2021/07/20 05:01:12;;;;;;;1.47;1.37;;;21.70;85.00;;;;;;5004838;28;20426;-27
2021/07/20 05:03:44;;;;;;;1.57;0.70;;;21.60;85.70;;;;;;5004964;28;20474;-27
2021/07/20 05:06:16;;;;;;;1.17;1.07;;;21.50;86.80;;;;;;5023269;28;20480;-27
2021/07/20 05:08:48;;;;;;;2.10;1.40;;;21.50;87.80;;;;;;5012258;28;20487;-27
2021/07/20 05:11:22;;;;;;;0.83;0.80;;;21.50;88.90;;;;;;5011728;28;20593;-27
2021/07/20 05:13:54;;;;;;;2.93;0.90;;;21.40;90.00;;;;;;5005144;28;20541;-27
2021/07/20 05:16:26;;;;;;;1.33;0.70;;;21.40;90.40;;;;;;5008292;28;20462;-27
2021/07/20 05:18:57;;;;;;;1.37;0.70;;;21.30;91.00;;;;;;5009014;28;20456;-27
2021/07/20 05:21:29;;;;;;;0.90;0.80;;;21.30;91.60;;;;;;5010916;28;20483;-27
2021/07/20 05:24:00;;;;;;;1.37;0.90;;;21.20;92.20;;;;;;5004794;28;20458;-27
2021/07/20 05:26:32;;;;;;;0.80;0.80;;;21.10;93.00;;;;;;5014556;28;20499;-27
2021/07/20 05:29:05;;;;;;;1.70;1.00;;;21.10;93.80;;;;;;5009925;28;20441;-27
2021/07/20 05:31:39;;;;;;;1.77;1.00;;;21.00;94.70;;;;;;5007439;28;20458;-27
2021/07/20 05:34:10;;;;;;;1.57;1.00;;;20.90;95.50;;;;;;5015386;28;20460;-27
2021/07/20 05:36:41;;;;;;;1.20;1.00;;;20.80;96.30;;;;;;5018773;28;20502;-27
2021/07/20 05:39:13;;;;;;;0.93;0.70;;;20.80;97.20;;;;;;5004115;28;20429;-27
2021/07/20 05:41:45;;;;;;;1.30;1.10;;;20.70;98.00;;;;;;5004958;28;20461;-27
2021/07/20 05:44:19;;;;;;;1.70;1.00;;;20.70;98.60;;;;;;5004764;28;20459;-27
2021/07/20 05:46:51;;;;;;;1.43;1.33;;;20.60;99.40;;;;;;5005934;28;20526;-27
2021/07/20 05:49:22;;;;;;;2.23;1.00;;;20.50;99.90;;;;;;5005871;28;20511;-27
2021/07/20 05:51:54;;;;;;;1.07;0.97;;;20.50;99.90;;;;;;5008928;28;21108;-27
2021/07/20 05:54:26;;;;;;;1.30;1.17;;;20.50;99.90;;;;;;5008255;28;20429;-27
2021/07/20 05:56:58;;;;;;;1.50;1.17;;;20.40;99.90;;;;;;5013254;28;20458;-27
2021/07/20 05:59:35;;;;;;;1.37;0.80;;;20.40;99.90;;;;;;5004422;28;20485;-27
2021/07/20 06:02:07;;;;;;;0.90;0.87;;;20.30;99.90;;;;;;5022794;28;20457;-27
2021/07/20 06:04:39;;;;;;;1.70;1.20;;;20.30;99.90;;;;;;5017128;28;20979;-27
2021/07/20 06:07:11;;;;;;;1.10;1.00;;;20.20;99.90;;;;;;5003153;28;20565;-27
2021/07/20 06:09:46;;;;;;;0.90;0.90;;;20.10;99.90;;;;;;5006080;28;20847;-27
2021/07/20 06:12:18;;;;;;;1.27;1.00;;;20.00;99.90;;;;;;5008155;28;20421;-27
2021/07/20 06:14:51;;;;;;;1.17;0.87;;;20.10;99.90;;;;;;5011449;28;20482;-27
2021/07/20 06:17:24;;;;;;;1.40;0.90;;;20.10;99.90;;;;;;5010126;28;20472;-27
2021/07/20 06:19:56;;;;;;;1.63;1.30;;;20.00;99.90;;;;;;5011806;28;20448;-27
2021/07/20 06:22:33;;;;;;;0.70;0.70;;;20.00;99.90;;;;;;5007483;28;20442;-27
2021/07/20 06:25:05;;;;;;;1.63;1.10;;;19.90;99.90;;;;;;5012727;28;20447;-28
2021/07/20 06:27:38;;;;;;;1.00;1.00;;;19.80;99.90;;;;;;5016764;28;20652;-27
2021/07/20 06:30:12;;;;;;;2.00;1.23;;;19.80;99.90;;;;;;5013320;28;20520;-27
2021/07/20 06:32:43;;;;;;;2.00;1.30;;;19.80;99.90;;;;;;5007492;28;20446;-27
2021/07/20 06:35:15;;;;;;;1.43;1.20;;;19.70;99.90;;;;;;5015699;28;20462;-26
2021/07/20 06:37:48;;;;;;;1.40;1.30;;;19.60;99.90;;;;;;5006364;28;20470;-27
2021/07/20 06:40:21;;;;;;;1.63;0.87;;;19.50;99.90;;;;;;5018241;28;20446;-27
2021/07/20 06:42:55;;;;;;;2.40;1.00;;;19.50;99.90;;;;;;5015450;28;20463;-27
2021/07/20 06:45:30;;;;;;;2.17;0.87;;;19.40;99.90;;;;;;5012735;28;20456;-27
2021/07/20 06:48:02;;;;;;;2.60;0.90;;;19.40;99.90;;;;;;5011779;28;20548;-27
2021/07/20 06:50:33;;;;;;;1.73;1.30;;;19.50;99.90;;;;;;5014819;28;20986;-27
2021/07/20 06:53:04;;;;;;;1.43;1.20;;;19.40;99.90;;;;;;5013428;28;21298;-26
2021/07/20 06:55:38;;;;;;;3.63;1.97;;;19.40;99.90;;;;;;5015757;28;20474;-27
2021/07/20 06:58:11;;;;;;;1.37;0.90;;;19.30;99.90;;;;;;5019201;28;20451;-26
2021/07/20 07:00:48;;;;;;;1.17;0.80;;;19.20;99.90;;;;;;5022745;28;20449;-26
2021/07/20 07:03:22;;;;;;;1.20;1.10;;;19.10;99.90;;;;;;5017944;28;20937;-27
2021/07/20 07:05:55;;;;;;;1.13;0.97;;;19.00;99.90;;;;;;5018983;28;20571;-27
2021/07/20 07:08:27;;;;;;;1.50;1.03;;;19.00;99.90;;;;;;5026349;28;20481;-26
2021/07/20 07:10:59;;;;;;;1.60;0.80;;;19.00;99.90;;;;;;5019177;28;20518;-27
2021/07/20 07:13:31;;;;;;;1.20;1.10;;;18.90;99.90;;;;;;5020381;28;20523;-27
2021/07/20 07:16:05;;;;;;;1.57;1.00;;;18.90;99.90;;;;;;5009987;28;20429;-27
2021/07/20 07:18:38;;;;;;;2.40;1.50;;;19.00;99.90;;;;;;5008707;28;20451;-26
2021/07/20 07:21:09;;;;;;;0.97;0.97;;;19.00;99.90;;;;;;5011439;28;21088;-26
2021/07/20 07:23:41;;;;;;;1.20;1.10;;;18.90;99.90;;;;;;5016700;28;20477;-27
2021/07/20 07:26:14;;;;;;;1.77;1.67;;;18.80;99.90;;;;;;5022976;28;20540;-26
2021/07/20 07:28:45;;;;;;;2.30;1.10;;;18.70;99.90;;;;;;5006436;28;20493;-26
2021/07/20 07:31:18;;;;;;;1.83;1.03;;;18.70;99.90;;;;;;5010740;28;20861;-26
2021/07/20 07:33:51;;;;;;;1.37;1.20;;;18.60;99.90;;;;;;5019894;28;20457;-27
2021/07/20 07:36:24;;;;;;;1.03;1.00;;;18.60;99.90;;;;;;5022667;28;20428;-27
2021/07/20 07:38:56;;;;;;;0.93;0.87;;;18.60;99.90;;;;;;5007224;28;20526;-27
2021/07/20 07:41:28;;;;;;;2.20;1.10;;;18.60;99.90;;;;;;5018497;28;20505;-27
2021/07/20 07:43:59;;;;;;;1.20;1.10;;;18.40;99.90;;;;;;5029894;28;20455;-27
2021/07/20 07:46:36;;;;;;;1.23;1.10;;;18.50;99.90;;;;;;5023098;28;20458;-27
2021/07/20 07:49:12;;;;;;;0.97;0.97;;;18.40;99.90;;;;;;5017166;28;20888;-27
2021/07/20 07:51:45;;;;;;;4.83;1.10;;;18.40;99.90;;;;;;5023856;28;20546;-27
2021/07/20 07:54:17;;;;;;;1.47;1.37;;;18.30;99.90;;;;;;5016044;28;20597;-27
2021/07/20 07:56:49;;;;;;;1.07;0.87;;;18.20;99.90;;;;;;5018732;28;20461;-27
2021/07/20 07:59:23;;;;;;;1.40;1.13;;;18.30;99.90;;;;;;5018218;28;20489;-27
2021/07/20 08:01:58;;;;;;;1.10;1.00;;;18.30;99.90;;;;;;5018112;28;20463;-27
2021/07/20 08:04:31;;;;;;;4.07;1.00;;;18.10;99.90;;;;;;5025108;28;20446;-27
2021/07/20 08:07:03;;;;;;;1.00;1.00;;;18.10;99.90;;;;;;5005261;28;20440;-27
2021/07/20 08:09:35;;;;;;;1.40;1.30;;;18.10;99.90;;;;;;5013739;28;20490;-27
2021/07/20 08:12:10;;;;;;;1.20;1.10;;;18.10;99.90;;;;;;5023469;28;20481;-27
2021/07/20 08:14:41;;;;;;;1.10;1.00;;;18.00;99.90;;;;;;5024832;28;20489;-26
2021/07/20 08:17:14;;;;;;;1.30;1.20;;;18.00;99.90;;;;;;5006242;28;20493;-27
2021/07/20 08:19:47;;;;;;;1.10;1.10;;;17.90;99.90;;;;;;5012088;28;20439;-26
2021/07/20 08:22:19;;;;;;;0.90;0.70;;;17.80;99.90;;;;;;5023225;28;20585;-26
2021/07/20 08:24:57;;;;;;;0.90;0.90;;;17.80;99.90;;;;;;5025186;28;20448;-26
2021/07/20 08:27:34;;;;;;;1.60;0.87;;;17.80;99.90;;;;;;5023672;28;20485;-26
2021/07/20 08:30:08;;;;;;;1.37;1.27;;;17.80;99.90;;;;;;5024337;28;20662;-26
2021/07/20 08:32:48;;;;;;;1.10;1.00;;;17.80;99.90;;;;;;5006946;28;20462;-26
2021/07/20 08:35:22;;;;;;;0.93;0.93;;;17.70;99.90;;;;;;5006630;28;20491;-26
2021/07/20 08:38:01;;;;;;;1.03;1.03;;;17.70;99.90;;;;;;5023407;28;20446;-26
2021/07/20 08:41:09;;;;;;;1.40;1.30;;;17.70;99.90;;;;;;5023255;28;20477;-27
2021/07/20 08:43:56;;;;;;;2.30;1.07;;;17.70;99.90;;;;;;5011630;28;20460;-27
2021/07/20 08:46:40;;;;;;;1.40;1.30;;;17.70;99.90;;;;;;5014305;28;20569;-27
2021/07/20 08:49:36;;;;;;;1.10;1.00;;;17.70;99.90;;;;;;5010850;28;20487;-27
2021/07/20 08:52:13;;;;;;;2.40;1.13;;;17.60;99.90;;;;;;5016141;28;20453;-27
2021/07/20 08:54:50;;;;;;;1.60;1.50;;;17.60;99.90;;;;;;5005012;28;20462;-27
2021/07/20 08:57:36;;;;;;;1.30;1.20;;;17.50;99.90;;;;;;5015234;28;20458;-27
2021/07/20 09:00:13;;;;;;;1.60;1.30;;;17.40;99.90;;;;;;5013421;28;20466;-27
2021/07/20 09:02:52;;;;;;;1.40;1.30;;;17.50;99.90;;;;;;5023182;28;20451;-27
2021/07/20 09:05:29;;;;;;;1.30;1.20;;;17.40;99.90;;;;;;5024068;28;20449;-27
2021/07/20 09:08:09;;;;;;;1.03;1.00;;;17.40;99.90;;;;;;5023126;28;20885;-27
2021/07/20 09:10:47;;;;;;;1.40;1.20;;;17.30;99.90;;;;;;5006559;28;20497;-27
2021/07/20 09:13:23;;;;;;;1.27;1.17;;;17.30;99.90;;;;;;5013142;28;20511;-27
2021/07/20 09:16:01;;;;;;;0.90;0.90;;;17.30;99.90;;;;;;5004080;28;20518;-27
2021/07/20 09:18:45;;;;;;;4.83;1.30;;;17.30;99.90;;;;;;5015135;28;20458;-27
2021/07/20 09:21:20;;;;;;;1.60;1.50;;;17.40;99.90;;;;;;5016945;28;20548;-27
2021/07/20 09:23:58;;;;;;;1.47;1.37;;;17.30;99.90;;;;;;5004175;28;20474;-27
2021/07/20 09:26:36;;;;;;;2.17;1.50;;;17.20;99.90;;;;;;5005235;28;20447;-27
2021/07/20 09:29:12;;;;;;;1.83;1.73;;;17.20;99.90;;;;;;5008272;28;20934;-27
2021/07/20 09:32:07;;;;;;;2.17;1.30;;;17.20;99.90;;;;;;5013992;28;20517;-27
2021/07/20 09:34:54;;;;;;;1.40;1.30;;;17.20;99.90;;;;;;5009526;28;20474;-27
2021/07/20 09:37:33;;;;;;;1.70;1.60;;;17.10;99.90;;;;;;5016222;28;20458;-27
2021/07/20 09:40:13;;;;;;;1.27;1.17;;;17.00;99.90;;;;;;5011103;28;20451;-27
2021/07/20 09:42:47;;;;;;;1.27;1.17;;;17.10;99.90;;;;;;5008568;28;20454;-27
2021/07/20 09:45:21;;;;;;;1.33;1.23;;;17.00;99.90;;;;;;5015473;28;20459;-27
2021/07/20 09:48:00;;;;;;;1.60;1.50;;;17.00;99.90;;;;;;5017102;28;20588;-27
2021/07/20 09:50:37;;;;;;;1.57;1.40;;;16.90;99.90;;;;;;5011023;28;20442;-27
2021/07/20 09:53:29;;;;;;;1.30;1.20;;;16.90;99.90;;;;;;5010349;28;20442;-26
2021/07/20 09:56:31;;;;;;;1.10;1.00;;;16.90;99.90;;;;;;5016493;28;20798;-28
2021/07/20 09:59:12;;;;;;;1.47;1.37;;;16.90;99.90;;;;;;5022777;28;20461;-27
2021/07/20 10:01:50;;;;;;;1.13;1.03;;;16.80;99.90;;;;;;5022540;28;20454;-27
2021/07/20 10:04:29;;;;;;;1.70;1.60;;;16.70;99.90;;;;;;5007499;28;20513;-27
2021/07/20 10:07:05;;;;;;;2.13;1.70;;;16.70;99.90;;;;;;5005867;28;20447;-27
2021/07/20 10:09:45;;;;;;;1.80;1.70;;;16.70;99.90;;;;;;5003955;28;20491;-27
2021/07/20 10:12:25;;;;;;;2.53;1.77;;;16.70;99.90;;;;;;5010500;28;20454;-27
2021/07/20 10:15:04;;;;;;;2.00;1.30;;;16.60;99.90;;;;;;5015183;28;20471;-27
2021/07/20 10:17:39;;;;;;;1.30;1.20;;;16.60;99.90;;;;;;5015519;28;20605;-26
2021/07/20 10:20:15;;;;;;;1.80;1.33;;;16.60;99.90;;;;;;5003933;28;20455;-27
2021/07/20 10:22:54;;;;;;;1.53;1.43;;;16.50;99.90;;;;;;5002416;28;21001;-27
2021/07/20 10:25:32;;;;;;;1.50;1.30;;;16.40;99.90;;;;;;5009795;28;20470;-27
2021/07/20 10:28:10;;;;;;;2.60;1.77;;;16.40;99.90;;;;;;5021136;28;20454;-27
2021/07/20 10:30:44;;;;;;;3.13;1.70;;;16.30;99.90;;;;;;5021531;28;20846;-27
2021/07/20 10:33:20;;;;;;;1.60;1.50;;;16.40;99.90;;;;;;5027072;28;20520;-27
2021/07/20 10:35:57;;;;;;;1.63;1.53;;;16.40;99.90;;;;;;5003368;28;20899;-27
2021/07/20 10:38:34;;;;;;;3.00;1.80;;;16.40;99.90;;;;;;5016632;28;20457;-27
2021/07/20 10:41:10;;;;;;;1.53;1.40;;;16.40;99.90;;;;;;5018706;28;20570;-26
2021/07/20 10:43:44;;;;;;;2.17;1.90;;;16.40;99.90;;;;;;5017855;28;20449;-26
2021/07/20 10:46:19;;;;;;;1.63;1.53;;;16.30;99.90;;;;;;5022025;28;20511;-26
2021/07/20 10:48:54;;;;;;;1.53;1.23;;;16.30;99.90;;;;;;5022327;28;20618;-25
2021/07/20 10:51:30;;;;;;;1.90;1.80;;;16.20;99.90;;;;;;5021094;28;20438;-26
2021/07/20 10:54:06;;;;;;;2.07;1.87;;;16.20;99.90;;;;;;5022497;28;20522;-26
2021/07/20 10:56:43;;;;;;;1.73;1.40;;;16.10;99.90;;;;;;5017502;28;20469;-26
2021/07/20 10:59:26;;;;;;;1.73;1.50;;;16.20;99.90;;;;;;5017728;28;20447;-27
2021/07/20 11:02:04;;;;;;;2.20;1.80;;;16.20;99.90;;;;;;5021917;28;20469;-27
2021/07/20 11:04:48;;;;;;;2.33;1.90;;;16.10;99.90;;;;;;5008953;28;20494;-27
2021/07/20 11:07:26;;;;;;;1.80;1.63;;;16.10;99.90;;;;;;5003740;28;20454;-27
2021/07/20 11:10:00;;;;;;;2.50;2.30;;;16.10;99.90;;;;;;5011106;28;20482;-27
2021/07/20 11:12:35;;;;;;;2.17;1.97;;;16.10;99.90;;;;;;5010696;28;20460;-27
2021/07/20 11:15:07;;;;;;;1.73;1.60;;;16.20;99.90;;;;;;5020186;28;20488;-27
2021/07/20 11:17:40;;;;;;;2.07;1.60;;;16.10;99.90;;;;;;5009072;28;20509;-26
2021/07/20 11:20:14;;;;;;;2.53;1.50;;;16.10;99.90;;;;;;5016222;28;20550;-27
2021/07/20 11:22:46;;;;;;;1.80;1.57;;;16.10;99.90;;;;;;5024637;28;20458;-27
2021/07/20 11:25:19;;;;;;;1.90;1.70;;;16.20;99.90;;;;;;5024664;28;20478;-27
2021/07/20 11:27:53;;;;;;;2.20;2.00;;;16.30;99.90;;;;;;5020377;28;20465;-27
2021/07/20 11:30:28;;;;;;;2.87;2.10;;;16.40;99.90;;;;;;5020786;28;20474;-27
2021/07/20 11:33:04;;;;;;;3.63;3.33;;;16.50;99.90;;;;;;5025042;28;20480;-27
2021/07/20 11:35:40;;;;;;;1.90;1.20;;;16.60;99.90;;;;;;5023909;28;20450;-27
2021/07/20 11:38:13;;;;;;;1.80;1.60;;;16.70;99.90;;;;;;5022968;28;20466;-27
2021/07/20 11:40:51;;;;;;;1.97;1.87;;;16.70;99.90;;;;;;5025444;28;20512;-27
2021/07/20 11:43:28;;;;;;;2.43;1.60;;;16.80;99.90;;;;;;5024721;28;20473;-27
2021/07/20 11:46:06;;;;;;;1.53;1.40;;;16.70;99.90;;;;;;5018905;28;20450;-27
2021/07/20 11:48:44;;;;;;;1.30;1.20;;;16.80;99.90;;;;;;5012934;28;20442;-27
2021/07/20 11:51:21;;;;;;;1.97;1.77;;;16.70;99.90;;;;;;5024674;28;20462;-27
2021/07/20 11:54:01;;;;;;;1.50;1.40;;;16.70;99.90;;;;;;5025227;28;20450;-27
2021/07/20 11:56:34;;;;;;;2.17;1.97;;;16.70;99.90;;;;;;5011289;28;20450;-27
2021/07/20 11:59:52;;;;;;;1.63;1.53;;;16.80;99.90;;;;;;5014601;28;20474;-27
2021/07/20 12:03:26;;;;;;;1.80;1.70;;;17.00;99.90;;;;;;5023595;28;20480;-27
2021/07/20 12:06:33;;;;;;;2.00;1.40;;;17.10;99.90;;;;;;4995075;28;20825;-27
2021/07/20 12:09:31;;;;;;;2.67;1.70;;;17.20;99.90;;;;;;5020775;28;20447;-27
2021/07/20 12:12:17;;;;;;;3.70;2.00;;;17.20;99.90;;;;;;5023936;28;20449;-26
2021/07/20 12:14:50;;;;;;;1.73;1.63;;;17.30;99.90;;;;;;5007749;28;20973;-26
2021/07/20 12:17:32;;;;;;;1.50;1.40;;;17.20;99.90;;;;;;5010391;28;20453;-27
2021/07/20 12:20:03;;;;;;;2.77;1.70;;;17.20;99.90;;;;;;5024206;28;20454;-27
2021/07/20 12:22:34;;;;;;;1.70;1.60;;;17.20;99.90;;;;;;5023594;28;20438;-27
2021/07/20 12:25:07;;;;;;;2.30;1.70;;;17.20;99.90;;;;;;5017539;28;20520;-27
2021/07/20 12:27:39;;;;;;;3.40;1.53;;;17.40;99.90;;;;;;5008382;28;20478;-26
2021/07/20 12:30:15;;;;;;;1.83;1.73;;;17.40;99.90;;;;;;5020176;28;20513;-27
2021/07/20 12:32:47;;;;;;;1.90;1.53;;;17.40;99.90;;;;;;5023455;28;20489;-27
2021/07/20 12:35:20;;;;;;;1.30;1.20;;;17.50;99.90;;;;;;5020949;28;20510;-27
2021/07/20 12:38:04;;;;;;;2.40;1.60;;;17.40;99.90;;;;;;5004213;28;20447;-27
2021/07/20 12:40:37;;;;;;;1.40;1.30;;;17.50;99.90;;;;;;5007926;28;20513;-27
2021/07/20 12:43:11;;;;;;;1.63;1.53;;;17.50;99.90;;;;;;5021837;28;20615;-27
2021/07/20 12:45:44;;;;;;;2.43;1.30;;;17.60;99.90;;;;;;5023309;28;20479;-27
2021/07/20 12:48:26;;;;;;;1.50;1.40;;;17.60;99.90;;;;;;5019734;28;20453;-26
2021/07/20 12:50:59;;;;;;;2.33;2.00;;;17.60;99.90;;;;;;5004162;28;20606;-26
2021/07/20 12:53:32;;;;;;;1.43;1.33;;;17.70;99.90;;;;;;5018552;28;20450;-26
2021/07/20 12:56:05;;;;;;;1.60;1.50;;;17.80;99.90;;;;;;5021679;28;20849;-26
2021/07/20 12:58:39;;;;;;;1.03;1.03;;;17.80;99.90;;;;;;5021258;28;20442;-26
2021/07/20 13:01:13;;;;;;;1.30;1.20;;;17.80;99.90;;;;;;5023508;28;20462;-26
2021/07/20 13:03:46;;;;;;;1.30;1.20;;;17.80;99.90;;;;;;5023044;28;20454;-26
2021/07/20 13:06:18;;;;;;;1.40;1.30;;;17.70;99.90;;;;;;5013973;28;20470;-26
2021/07/20 13:08:52;;;;;;;1.50;1.30;;;17.80;99.90;;;;;;5008471;28;20447;-26
2021/07/20 13:11:22;;;;;;;1.37;1.27;;;17.90;99.90;;;;;;5004364;28;20471;-26
2021/07/20 13:13:55;;;;;;;1.80;1.37;;;17.90;99.90;;;;;;5016692;28;20459;-26
2021/07/20 13:16:34;;;;;;;1.80;0.90;;;18.00;99.90;;;;;;5014001;28;20458;-26
2021/07/20 13:19:06;;;;;;;1.37;1.27;;;18.00;99.90;;;;;;5017265;28;20517;-26
2021/07/20 13:21:41;;;;;;;3.50;1.40;;;17.90;99.90;;;;;;5009073;28;20530;-27
2021/07/20 13:24:12;;;;;;;1.30;1.20;;;18.00;99.90;;;;;;5008930;28;20482;-27
2021/07/20 13:26:43;;;;;;;1.07;1.00;;;18.00;99.90;;;;;;5018414;28;20593;-27
2021/07/20 13:29:15;;;;;;;1.50;1.40;;;18.10;99.90;;;;;;5025259;28;20443;-27